メインページ
METAR-TAF:

METAR-TAF

空港 :

ナンタケット, マサチューセッツ州, アメリカ合衆国

緯度: 41-15-14N, 経度: 070-03-35W, 海抜: 14m

現時点の気象観測

当レポートは6分前の17:34(UTC)に作成
南/南西の風 5kt
気温 14°C
湿度 94%
気圧 1024 hPa
視程: 4.0km
高度400ftの曇り

METAR: KACK 261734Z AUTO 21005KT 2 1/2SM R24/4500VP6000FT BR OVC004 14/13 A3023 RMK AO2 T01440133

時間: 13:40 (17:40 UTC)

予報

当レポートは8分前の17:32(UTC)に作成
予報は26日の 18時(UTC)から 27日の 18時(UTC)まで有効
の風 5kt
視程: 10km
高度300ftの千切れ雲あり
26日の 2200時(UTC)から
の風 6kt
視程: 0.4km
高度300ftの曇り
27日の 1100時(UTC)から
南/南西の風 5kt
視程: 1.2km
高度300ftの曇り
靄, 近辺でにわか雨
27日の 1300時(UTC)から
南/南西の風 8kt
視程: 3.2km
高度800ftの曇り
27日の 1700時(UTC)から
南/南西の風 10kt
視程: 10km
高度1000ftの千切れ雲あり

TAF: KACK 261732Z 2618/2718 17005KT P6SM BKN003 FM262200 19006KT 1/4SM FG OVC003 FM271100 21005KT 3/4SM BR VCSH OVC003 FM271300 21008KT 2SM BR OVC008 FM271700 21010KT P6SM BKN010

4,000以上の空港の気象観測と天気予報(METAR報とTAF報)

利用可能な観測所は地図上に黄色い丸と赤い丸で示す。

丸の上にカーソルを重ねると観測所名を参照できる。

次にクリックすると気象観測と天気予報を参照できる。

マップの切り替え:黒色「×」印の緑ボタンをクリックして拡大、「-」印の緑ボタンをクリックして縮小、緑色の三角印をクリックして隣りの地図に切り替え


METAR-TAF: